Terminal Aerodrome Forecast
Issued by NWS Dodge City, KS

Home | Current Version | Previous Version | Text Only | Print | Product List | Glossary On
Versions: 1 2 3 4 5 6 7 8 9 10 11 12 13 14 15 16 17
000
FTUS43 KDDC 310446 AAC
TAFDDC
TAF AMD
KDDC 310446Z 3105/3124 36022G32KT P6SM SCT050 BKN250
     FM310600 36018KT P6SM VCTS OVC050CB
     FM310900 18008KT P6SM -TSRA OVC080CB
      TEMPO 3109/3113 4SM -TSRA OVC050CB
     FM311500 04010G20KT 3SM -RA OVC040=

USA.gov is the U.S. government's official web portal to all federal, state and local government web resources and services.